Time;durP1;ratioP1;P1;durP2;ratioP2;P2;SDS_P1;SDS_P2;PMS_P1;PMS_P2;Temp;Humidity;BMP_temperature;BMP_pressure;BME280_temperature;BME280_humidity;BME280_pressure;Samples;Min_cycle;Max_cycle;Signal;HPM_P1;HPM_P2
2022/09/25 00:01:30;;;;;;;2.38;2.17;;;19.70;53.00;;;;;;5067487;28;45311;-74
2022/09/25 00:03:58;;;;;;;2.50;2.30;;;19.70;53.00;;;;;;5067547;28;45280;-75
2022/09/25 00:06:26;;;;;;;2.15;1.95;;;19.60;53.00;;;;;;5067097;28;45254;-74
2022/09/25 00:08:53;;;;;;;2.45;2.25;;;19.60;52.80;;;;;;5067076;28;45198;-73
2022/09/25 00:11:22;;;;;;;2.03;1.90;;;19.60;53.00;;;;;;5067080;28;45350;-74
2022/09/25 00:13:49;;;;;;;2.38;2.00;;;19.60;53.00;;;;;;5067369;28;45234;-75
2022/09/25 00:16:18;;;;;;;2.33;2.13;;;19.50;52.90;;;;;;5066914;28;45435;-75
2022/09/25 00:21:31;;;;;;;2.30;2.10;;;19.50;53.00;;;;;;5064635;28;45427;-74
2022/09/25 00:23:59;;;;;;;2.45;1.90;;;19.50;53.10;;;;;;5067162;28;45227;-74
2022/09/25 00:26:26;;;;;;;2.78;2.00;;;19.50;53.00;;;;;;5066803;28;45274;-74
2022/09/25 00:28:53;;;;;;;2.55;1.98;;;19.50;52.90;;;;;;5066951;28;45256;-74
2022/09/25 00:31:23;;;;;;;2.00;1.90;;;19.50;53.00;;;;;;5067101;28;45186;-75
2022/09/25 00:33:50;;;;;;;2.30;2.08;;;19.50;52.90;;;;;;5067093;28;45657;-75
2022/09/25 00:36:17;;;;;;;2.15;1.95;;;19.50;53.00;;;;;;5066508;28;46654;-75
2022/09/25 00:38:47;;;;;;;2.03;1.92;;;19.40;53.10;;;;;;5066774;28;45189;-75
2022/09/25 00:41:14;;;;;;;2.20;2.00;;;19.40;53.00;;;;;;5066819;28;45287;-74
2022/09/25 00:43:43;;;;;;;2.13;1.98;;;19.40;53.10;;;;;;5067047;28;45216;-74
2022/09/25 00:46:12;;;;;;;2.22;2.03;;;19.40;53.10;;;;;;5066571;28;46611;-74
2022/09/25 00:48:42;;;;;;;1.80;1.70;;;19.40;53.70;;;;;;5066625;28;45327;-74
2022/09/25 00:51:09;;;;;;;2.08;1.88;;;19.40;53.00;;;;;;5066519;28;45210;-75
2022/09/25 00:53:38;;;;;;;1.92;1.58;;;19.40;53.00;;;;;;5066107;28;45400;-74
2022/09/25 00:56:06;;;;;;;2.30;2.10;;;19.40;53.60;;;;;;5066122;28;45321;-75
2022/09/25 00:58:33;;;;;;;2.13;1.90;;;19.40;53.10;;;;;;5066557;28;45208;-75
2022/09/25 01:01:00;;;;;;;2.30;2.03;;;19.30;53.00;;;;;;5066559;28;45220;-74
2022/09/25 01:03:27;;;;;;;1.88;1.73;;;19.30;53.10;;;;;;5066893;28;45329;-74
2022/09/25 01:05:54;;;;;;;2.00;1.90;;;19.30;53.20;;;;;;5066124;28;45468;-74
2022/09/25 01:08:22;;;;;;;2.20;2.00;;;19.30;53.10;;;;;;5066596;28;45198;-74
2022/09/25 01:10:49;;;;;;;1.90;1.70;;;19.30;53.00;;;;;;5066115;28;45202;-74
2022/09/25 01:13:18;;;;;;;2.13;1.77;;;19.30;53.10;;;;;;5066552;28;45261;-74
2022/09/25 01:15:47;;;;;;;1.88;1.77;;;19.30;53.70;;;;;;5066144;28;45289;-75
2022/09/25 01:18:19;;;;;;;2.13;1.75;;;19.30;53.00;;;;;;5066166;28;45244;-75
2022/09/25 01:21:21;;;;;;;1.85;1.75;;;19.30;53.00;;;;;;5066260;28;45155;-74
2022/09/25 01:24:10;;;;;;;2.38;2.10;;;19.30;53.10;;;;;;5024216;28;45544;-75
2022/09/25 01:26:56;;;;;;;1.85;1.75;;;19.30;53.10;;;;;;5063615;28;45240;-75
2022/09/25 01:29:25;;;;;;;1.75;1.65;;;19.30;53.10;;;;;;5066148;28;45136;-75
2022/09/25 01:31:54;;;;;;;2.47;1.80;;;19.30;53.10;;;;;;5066481;28;45309;-75
2022/09/25 01:34:25;;;;;;;1.75;1.65;;;19.30;53.00;;;;;;5066467;28;45368;-75
2022/09/25 01:36:56;;;;;;;1.80;1.70;;;19.30;53.00;;;;;;5065828;28;46479;-74
2022/09/25 01:39:27;;;;;;;2.13;1.92;;;19.20;53.10;;;;;;5066042;28;45334;-74
2022/09/25 01:41:56;;;;;;;2.08;1.77;;;19.20;53.10;;;;;;5066154;28;45248;-75
2022/09/25 01:44:27;;;;;;;1.95;1.75;;;19.20;53.10;;;;;;5066221;28;45454;-75
2022/09/25 01:46:55;;;;;;;2.08;1.85;;;19.30;53.10;;;;;;5065676;28;45700;-74
2022/09/25 01:49:24;;;;;;;2.05;1.75;;;19.20;53.20;;;;;;5065784;28;45209;-74
2022/09/25 01:51:52;;;;;;;2.13;1.95;;;19.20;53.20;;;;;;5066176;28;45307;-74
2022/09/25 01:54:20;;;;;;;2.17;2.00;;;19.20;53.10;;;;;;5066126;28;45433;-74
2022/09/25 01:56:50;;;;;;;2.25;2.05;;;19.20;53.30;;;;;;5065647;28;46644;-74
2022/09/25 01:59:19;;;;;;;2.08;1.80;;;19.20;53.20;;;;;;5065771;28;45237;-75
2022/09/25 02:01:47;;;;;;;2.60;1.90;;;19.20;53.30;;;;;;5065994;28;45312;-74
2022/09/25 02:04:15;;;;;;;1.95;1.50;;;19.20;53.10;;;;;;5068846;28;45215;-75
2022/09/25 02:06:43;;;;;;;1.90;1.70;;;19.20;53.20;;;;;;5069000;28;45343;-74
2022/09/25 02:09:11;;;;;;;2.15;1.90;;;19.20;53.20;;;;;;5069043;28;45306;-75
2022/09/25 02:11:39;;;;;;;2.97;2.10;;;19.20;53.20;;;;;;5069001;28;45423;-75
2022/09/25 02:14:08;;;;;;;3.40;1.73;;;19.20;53.20;;;;;;5068720;28;45321;-73
2022/09/25 02:16:36;;;;;;;1.90;1.77;;;19.10;53.80;;;;;;5068531;28;47864;-74
2022/09/25 02:22:06;;;;;;;1.75;1.63;;;19.20;53.20;;;;;;5006611;28;45453;-74
2022/09/25 02:24:36;;;;;;;1.92;1.83;;;19.20;53.20;;;;;;5006908;28;45475;-74
2022/09/25 02:27:03;;;;;;;1.90;1.70;;;19.20;53.20;;;;;;5034782;28;46661;-75
2022/09/25 02:29:30;;;;;;;2.30;1.70;;;19.20;53.10;;;;;;5068749;28;45379;-74
2022/09/25 02:31:58;;;;;;;2.20;1.98;;;19.20;53.00;;;;;;5068911;28;45201;-74
2022/09/25 02:34:26;;;;;;;1.80;1.52;;;19.20;53.10;;;;;;5069164;28;45610;-74
2022/09/25 02:36:53;;;;;;;2.20;1.58;;;19.10;53.10;;;;;;5068531;28;47262;-74
2022/09/25 02:39:21;;;;;;;2.00;1.77;;;19.10;53.10;;;;;;5068620;28;45276;-73
2022/09/25 02:42:09;;;;;;;1.48;1.38;;;19.10;53.10;;;;;;5068682;28;45193;-74
2022/09/25 02:44:41;;;;;;;1.98;1.77;;;19.20;53.20;;;;;;5068847;28;45244;-74
2022/09/25 02:47:14;;;;;;;2.10;1.70;;;19.20;53.20;;;;;;5068344;28;45776;-74
2022/09/25 02:49:47;;;;;;;1.60;1.50;;;19.20;53.10;;;;;;5068616;28;45261;-74
2022/09/25 02:52:15;;;;;;;2.05;1.75;;;19.20;53.20;;;;;;5068668;28;45322;-74
2022/09/25 02:54:45;;;;;;;2.20;2.00;;;19.20;53.20;;;;;;5068729;28;45239;-74
2022/09/25 02:57:14;;;;;;;1.90;1.80;;;19.20;53.20;;;;;;5068423;28;45468;-74
2022/09/25 02:59:43;;;;;;;1.75;1.65;;;19.10;53.10;;;;;;5068282;28;45286;-74
2022/09/25 03:02:10;;;;;;;2.03;1.90;;;19.10;53.10;;;;;;5068275;28;45254;-75
2022/09/25 03:04:37;;;;;;;1.98;1.85;;;19.10;53.20;;;;;;5068623;28;45590;-74
2022/09/25 03:07:05;;;;;;;2.00;1.80;;;19.10;53.20;;;;;;5067980;28;46932;-75
2022/09/25 03:09:35;;;;;;;1.83;1.73;;;19.10;53.20;;;;;;5068150;28;45230;-74
2022/09/25 03:12:03;;;;;;;2.35;1.80;;;19.10;53.20;;;;;;5067819;28;45456;-74
2022/09/25 03:14:30;;;;;;;2.03;1.83;;;19.10;53.20;;;;;;5068243;28;45353;-74
2022/09/25 03:16:57;;;;;;;1.65;1.55;;;19.10;53.10;;;;;;5068003;28;45419;-74
2022/09/25 03:19:24;;;;;;;2.13;1.80;;;19.10;53.20;;;;;;5068028;28;45171;-74
2022/09/25 03:21:51;;;;;;;1.75;1.65;;;19.10;53.20;;;;;;5068312;28;45231;-74
2022/09/25 03:24:19;;;;;;;1.70;1.60;;;19.10;53.80;;;;;;5068294;28;45376;-74
2022/09/25 03:26:46;;;;;;;2.00;1.80;;;19.10;53.20;;;;;;5066947;28;45300;-73
2022/09/25 03:29:13;;;;;;;1.95;1.73;;;19.10;53.10;;;;;;5067776;28;45227;-73
2022/09/25 03:31:41;;;;;;;1.90;1.80;;;19.10;53.20;;;;;;5067782;28;45257;-73
2022/09/25 03:34:08;;;;;;;2.38;1.80;;;19.10;53.20;;;;;;5067795;28;45472;-74
2022/09/25 03:36:35;;;;;;;4.50;2.00;;;19.10;53.20;;;;;;5067423;28;45301;-74
2022/09/25 03:39:02;;;;;;;2.00;1.80;;;19.10;53.10;;;;;;5067723;28;45354;-74
2022/09/25 03:41:32;;;;;;;3.10;2.00;;;19.10;53.20;;;;;;5067696;28;45249;-74
2022/09/25 03:43:59;;;;;;;2.05;1.65;;;19.10;53.10;;;;;;5067694;28;45298;-74
2022/09/25 03:46:29;;;;;;;1.50;1.40;;;19.10;53.20;;;;;;5067203;28;46836;-74
2022/09/25 03:48:56;;;;;;;2.15;1.88;;;19.10;53.90;;;;;;5067302;28;45134;-74
2022/09/25 03:51:22;;;;;;;1.83;1.73;;;19.10;53.20;;;;;;5067598;28;45247;-74
2022/09/25 03:53:49;;;;;;;1.70;1.58;;;19.10;53.20;;;;;;5067571;28;45355;-75
2022/09/25 03:56:17;;;;;;;2.10;1.80;;;19.10;53.20;;;;;;5067138;28;46503;-73
2022/09/25 03:58:45;;;;;;;1.80;1.70;;;19.10;53.20;;;;;;5067153;28;45158;-73
2022/09/25 04:01:12;;;;;;;1.98;1.70;;;19.10;53.70;;;;;;5067363;28;45344;-73
2022/09/25 04:03:39;;;;;;;2.67;1.60;;;19.10;53.20;;;;;;5067343;28;45313;-73
2022/09/25 04:06:07;;;;;;;1.88;1.60;;;19.10;53.20;;;;;;5066854;28;45505;-73
2022/09/25 04:08:34;;;;;;;1.73;1.63;;;19.00;53.10;;;;;;5067079;28;45199;-72
2022/09/25 04:11:01;;;;;;;1.83;1.73;;;19.00;53.10;;;;;;5066799;28;45282;-72
2022/09/25 04:13:30;;;;;;;1.83;1.60;;;19.10;53.20;;;;;;5066431;28;45405;-73
2022/09/25 04:15:58;;;;;;;1.70;1.60;;;19.00;53.10;;;;;;5066754;28;45462;-73
2022/09/25 04:18:26;;;;;;;1.90;1.65;;;19.00;53.10;;;;;;5066931;28;45237;-73
2022/09/25 04:20:52;;;;;;;1.75;1.63;;;19.10;53.20;;;;;;5066967;28;45307;-73
2022/09/25 04:23:20;;;;;;;1.60;1.50;;;19.00;53.10;;;;;;5067154;28;45269;-73
2022/09/25 04:25:48;;;;;;;2.38;1.88;;;19.10;53.20;;;;;;5066069;28;45306;-73
2022/09/25 04:28:14;;;;;;;2.00;1.80;;;19.00;53.10;;;;;;5066815;28;45209;-73
2022/09/25 04:30:41;;;;;;;1.52;1.42;;;19.00;53.10;;;;;;5066758;28;45248;-73
2022/09/25 04:35:55;;;;;;;1.52;1.42;;;19.10;53.10;;;;;;5064074;28;45374;-73
2022/09/25 04:38:22;;;;;;;1.60;1.48;;;19.10;53.10;;;;;;5066621;28;45304;-73
2022/09/25 04:40:49;;;;;;;1.48;1.38;;;19.00;53.00;;;;;;5066773;28;45189;-73
2022/09/25 04:43:15;;;;;;;2.25;1.60;;;19.00;53.00;;;;;;5067014;28;45249;-73
2022/09/25 04:45:42;;;;;;;1.20;1.20;;;19.00;53.00;;;;;;5066340;28;45471;-72
2022/09/25 04:48:10;;;;;;;1.70;1.50;;;19.00;53.00;;;;;;5066464;28;45327;-73
2022/09/25 04:50:38;;;;;;;1.67;1.58;;;19.00;53.00;;;;;;5066628;28;45374;-73
2022/09/25 04:53:04;;;;;;;1.60;1.50;;;19.00;53.00;;;;;;5066600;28;45183;-73
2022/09/25 04:55:31;;;;;;;1.60;1.50;;;19.00;53.10;;;;;;5066286;28;46422;-73
2022/09/25 04:57:59;;;;;;;1.63;1.52;;;19.00;53.00;;;;;;5066328;28;45472;-73
2022/09/25 05:00:27;;;;;;;1.55;1.45;;;19.00;53.00;;;;;;5066372;28;45316;-73
2022/09/25 05:02:53;;;;;;;1.67;1.58;;;19.00;53.10;;;;;;5066089;28;45400;-73
2022/09/25 05:05:29;;;;;;;1.58;1.48;;;18.90;53.00;;;;;;5065626;28;45455;-73
2022/09/25 05:07:56;;;;;;;1.92;1.60;;;18.90;53.10;;;;;;5065645;28;45263;-73
2022/09/25 05:10:23;;;;;;;1.50;1.40;;;18.90;53.00;;;;;;5066036;28;45381;-72
2022/09/25 05:12:55;;;;;;;1.70;1.60;;;19.00;53.10;;;;;;5066441;28;45315;-73
2022/09/25 05:15:21;;;;;;;2.03;1.60;;;19.00;53.10;;;;;;5065971;28;45621;-73
2022/09/25 05:17:48;;;;;;;1.77;1.67;;;19.00;53.10;;;;;;5066013;28;45254;-73
2022/09/25 05:20:16;;;;;;;1.45;1.30;;;19.00;53.10;;;;;;5066218;28;45285;-73
2022/09/25 05:22:44;;;;;;;1.90;1.42;;;18.90;53.00;;;;;;5066429;28;45316;-72
2022/09/25 05:25:11;;;;;;;1.55;1.45;;;18.90;53.00;;;;;;5065834;28;46669;-73
2022/09/25 05:27:38;;;;;;;2.70;1.30;;;18.90;53.00;;;;;;5065878;28;45260;-73
2022/09/25 05:30:07;;;;;;;1.60;1.50;;;18.90;53.00;;;;;;5066123;28;45302;-72
2022/09/25 05:32:34;;;;;;;1.45;1.35;;;18.90;53.00;;;;;;5066146;28;45405;-72
2022/09/25 05:35:03;;;;;;;1.50;1.40;;;18.90;53.60;;;;;;5065741;28;47343;-72
2022/09/25 05:37:29;;;;;;;1.77;1.40;;;18.90;53.00;;;;;;5066097;28;45158;-73
2022/09/25 05:39:57;;;;;;;1.70;1.60;;;18.90;53.00;;;;;;5069513;28;45257;-73
2022/09/25 05:42:24;;;;;;;1.60;1.50;;;18.90;53.10;;;;;;5069757;28;45193;-74
2022/09/25 05:44:51;;;;;;;1.65;1.55;;;18.90;53.00;;;;;;5069473;28;45375;-74
2022/09/25 05:47:18;;;;;;;1.63;1.52;;;18.90;53.10;;;;;;5069357;28;45308;-76
2022/09/25 05:49:44;;;;;;;1.58;1.48;;;18.80;53.00;;;;;;5069515;28;45283;-73
2022/09/25 05:52:11;;;;;;;1.48;1.38;;;18.90;53.10;;;;;;5068777;28;45403;-74
2022/09/25 05:54:38;;;;;;;2.15;1.73;;;18.90;53.10;;;;;;5068932;28;45192;-74
2022/09/25 05:57:06;;;;;;;1.63;1.50;;;18.90;53.10;;;;;;5069297;28;45187;-74
2022/09/25 05:59:34;;;;;;;1.45;1.35;;;18.80;53.00;;;;;;5069337;28;45380;-73
2022/09/25 06:02:00;;;;;;;1.73;1.63;;;18.80;53.00;;;;;;5067183;28;45468;-74
2022/09/25 06:04:27;;;;;;;2.55;1.70;;;18.80;53.10;;;;;;5067596;28;45481;-73
2022/09/25 06:06:54;;;;;;;2.30;1.70;;;18.90;53.20;;;;;;5067056;28;45341;-73
2022/09/25 06:09:21;;;;;;;1.80;1.70;;;18.80;53.10;;;;;;5068773;28;45185;-73
2022/09/25 06:11:47;;;;;;;1.60;1.50;;;18.90;53.10;;;;;;5068663;28;45405;-73
2022/09/25 06:14:16;;;;;;;1.98;1.80;;;18.80;53.10;;;;;;5068487;28;46371;-73
2022/09/25 06:16:43;;;;;;;2.95;1.70;;;18.80;53.10;;;;;;5068544;28;45419;-73
2022/09/25 06:19:10;;;;;;;2.20;2.00;;;18.80;53.10;;;;;;5068600;28;45272;-73
2022/09/25 06:21:36;;;;;;;2.50;1.80;;;18.80;53.10;;;;;;5068713;28;45104;-72
2022/09/25 06:24:03;;;;;;;2.28;2.00;;;18.80;53.10;;;;;;5074220;28;45348;-73
2022/09/25 06:26:31;;;;;;;2.30;1.90;;;18.80;53.20;;;;;;5068244;28;45576;-73
2022/09/25 06:28:59;;;;;;;1.70;1.60;;;18.80;53.20;;;;;;5068259;28;45257;-73
2022/09/25 06:31:27;;;;;;;2.20;2.00;;;18.80;53.20;;;;;;5068478;28;45290;-72
2022/09/25 06:33:54;;;;;;;1.70;1.60;;;18.80;53.30;;;;;;5068419;28;45593;-73
2022/09/25 06:36:21;;;;;;;2.20;2.00;;;18.80;53.30;;;;;;5063870;28;45457;-72
2022/09/25 06:38:48;;;;;;;2.95;2.20;;;18.70;53.30;;;;;;5068084;28;45282;-74
2022/09/25 06:41:15;;;;;;;2.33;2.13;;;18.70;53.30;;;;;;5068524;28;45325;-74
2022/09/25 06:43:42;;;;;;;4.03;2.33;;;18.80;53.30;;;;;;5067930;28;46719;-74
2022/09/25 06:46:09;;;;;;;2.20;2.00;;;18.80;53.30;;;;;;5068029;28;45400;-74
2022/09/25 06:48:37;;;;;;;2.25;2.08;;;18.80;53.20;;;;;;5067894;28;45351;-74
2022/09/25 06:51:06;;;;;;;2.15;2.00;;;18.80;53.20;;;;;;5068242;28;45350;-74
2022/09/25 06:53:32;;;;;;;2.35;2.08;;;18.80;53.20;;;;;;5067760;28;46761;-74
2022/09/25 06:55:59;;;;;;;2.72;1.83;;;18.80;53.20;;;;;;5067887;28;45301;-75
2022/09/25 06:58:26;;;;;;;2.30;2.10;;;18.80;53.30;;;;;;5068016;28;45522;-74
2022/09/25 07:00:54;;;;;;;2.33;1.80;;;18.80;53.20;;;;;;5065484;28;45430;-74
2022/09/25 07:06:07;;;;;;;2.40;1.95;;;18.80;53.20;;;;;;5068163;28;45193;-74
2022/09/25 07:08:34;;;;;;;3.00;2.20;;;18.80;53.30;;;;;;5067023;28;45380;-74
2022/09/25 07:11:01;;;;;;;2.30;2.10;;;18.80;53.90;;;;;;5061082;28;45393;-75
2022/09/25 07:13:29;;;;;;;2.65;2.00;;;18.80;53.30;;;;;;5060259;28;45230;-74
2022/09/25 07:15:56;;;;;;;2.97;2.10;;;18.80;53.40;;;;;;5067513;28;45252;-74
2022/09/25 07:18:23;;;;;;;2.38;2.17;;;18.80;53.40;;;;;;5067944;28;45195;-74
2022/09/25 07:20:50;;;;;;;2.83;2.35;;;18.80;53.40;;;;;;5062071;28;45317;-74
2022/09/25 07:23:19;;;;;;;3.25;2.53;;;18.80;53.40;;;;;;5067404;28;46828;-74
2022/09/25 07:25:46;;;;;;;2.53;2.00;;;18.80;53.40;;;;;;5067438;28;45364;-74
2022/09/25 07:28:13;;;;;;;2.20;2.00;;;18.80;53.30;;;;;;5066835;28;45209;-74
2022/09/25 07:30:40;;;;;;;2.45;2.22;;;18.80;53.30;;;;;;5061376;28;45243;-74
2022/09/25 07:33:06;;;;;;;2.22;2.03;;;18.80;53.30;;;;;;5067409;28;46514;-74
2022/09/25 07:35:34;;;;;;;2.97;2.30;;;18.80;53.40;;;;;;5066046;28;45466;-74
2022/09/25 07:38:00;;;;;;;3.15;2.30;;;18.90;53.30;;;;;;5067517;28;45131;-74
2022/09/25 07:40:30;;;;;;;2.40;2.15;;;18.80;53.30;;;;;;5067461;28;45494;-74
2022/09/25 07:42:58;;;;;;;2.75;1.92;;;18.90;53.30;;;;;;5067121;28;45534;-74
2022/09/25 07:45:25;;;;;;;2.70;2.30;;;18.90;53.40;;;;;;5064489;28;45178;-74
2022/09/25 07:47:55;;;;;;;3.15;2.40;;;18.90;53.40;;;;;;5067421;28;45299;-74
2022/09/25 07:50:22;;;;;;;2.90;2.30;;;18.90;53.30;;;;;;5051015;28;45348;-74
2022/09/25 07:52:48;;;;;;;2.63;2.15;;;18.90;53.30;;;;;;5067154;28;46636;-74
2022/09/25 07:55:17;;;;;;;2.63;2.30;;;18.90;53.30;;;;;;5058764;28;45332;-74
2022/09/25 07:57:45;;;;;;;2.30;1.98;;;18.90;53.30;;;;;;5067405;28;45325;-74
2022/09/25 08:00:12;;;;;;;2.60;2.40;;;18.90;53.30;;;;;;5066451;28;45347;-74
2022/09/25 08:02:39;;;;;;;2.45;2.25;;;18.90;53.40;;;;;;5047968;28;47356;-74
2022/09/25 08:05:08;;;;;;;2.40;2.20;;;18.80;53.50;;;;;;5064286;28;45277;-74
2022/09/25 08:07:34;;;;;;;2.78;2.10;;;18.90;53.40;;;;;;5067053;28;45365;-74
2022/09/25 08:10:01;;;;;;;3.10;2.47;;;18.90;53.40;;;;;;5067548;28;45452;-73
2022/09/25 08:12:28;;;;;;;2.10;1.90;;;18.90;53.40;;;;;;5046584;28;45512;-72
2022/09/25 08:14:56;;;;;;;2.40;2.20;;;18.90;53.40;;;;;;5046089;28;45133;-74
2022/09/25 08:17:23;;;;;;;2.08;1.88;;;18.90;53.30;;;;;;5046788;28;45144;-73
2022/09/25 08:19:50;;;;;;;2.38;2.15;;;18.90;53.30;;;;;;5046968;28;45409;-74
2022/09/25 08:22:16;;;;;;;2.38;2.03;;;18.90;53.30;;;;;;5044381;28;45491;-74
2022/09/25 08:24:43;;;;;;;2.17;2.00;;;19.00;53.30;;;;;;5043219;28;45356;-74
2022/09/25 08:27:10;;;;;;;2.35;2.10;;;19.00;53.10;;;;;;5045186;28;45251;-74
2022/09/25 08:29:37;;;;;;;2.10;2.00;;;19.00;53.10;;;;;;5037740;28;45229;-74
2022/09/25 08:32:05;;;;;;;2.40;2.13;;;19.00;53.00;;;;;;5043131;28;45462;-74
2022/09/25 08:34:32;;;;;;;2.00;1.80;;;19.00;53.00;;;;;;5040868;28;45372;-74
2022/09/25 08:36:58;;;;;;;2.17;1.83;;;19.10;53.00;;;;;;5059234;28;45433;-74
2022/09/25 08:39:25;;;;;;;2.17;1.98;;;19.10;53.10;;;;;;5066826;28;45195;-74
2022/09/25 08:41:53;;;;;;;2.17;1.95;;;19.00;53.00;;;;;;5049438;28;46998;-75
2022/09/25 08:44:24;;;;;;;2.17;1.88;;;19.00;53.00;;;;;;5059396;28;45353;-75
2022/09/25 08:49:39;;;;;;;2.90;2.00;;;19.10;53.00;;;;;;5050157;28;45389;-75
2022/09/25 08:52:08;;;;;;;1.98;1.77;;;19.10;53.10;;;;;;5036141;28;45555;-75
2022/09/25 08:54:35;;;;;;;2.33;2.05;;;19.10;53.10;;;;;;5062747;28;45358;-74
2022/09/25 08:57:07;;;;;;;2.17;1.98;;;19.10;53.10;;;;;;5042289;28;45449;-75
2022/09/25 08:59:35;;;;;;;2.20;2.00;;;19.10;53.00;;;;;;5062668;28;45318;-74
2022/09/25 09:02:03;;;;;;;2.30;2.10;;;19.10;53.10;;;;;;5052986;28;46981;-74
2022/09/25 09:04:32;;;;;;;2.47;2.13;;;19.20;53.10;;;;;;5052393;28;45465;-75
2022/09/25 09:07:04;;;;;;;2.50;2.30;;;19.20;53.10;;;;;;5043621;28;45415;-75
2022/09/25 09:09:33;;;;;;;2.33;2.13;;;19.20;53.20;;;;;;5062025;28;45423;-75
2022/09/25 09:12:03;;;;;;;2.30;2.10;;;19.20;53.10;;;;;;5062610;28;46660;-74
2022/09/25 09:14:31;;;;;;;2.28;2.08;;;19.20;53.00;;;;;;5064360;28;45345;-74
2022/09/25 09:16:59;;;;;;;3.53;2.40;;;19.20;52.90;;;;;;5069509;28;45404;-75
2022/09/25 09:19:26;;;;;;;2.20;2.00;;;19.20;53.00;;;;;;5068305;28;45377;-75
2022/09/25 09:22:11;;;;;;;2.20;2.00;;;19.20;52.90;;;;;;5069327;28;45490;-75
2022/09/25 09:24:48;;;;;;;2.20;2.00;;;19.20;53.00;;;;;;5069247;28;45270;-75
2022/09/25 09:27:25;;;;;;;1.90;1.70;;;19.30;53.00;;;;;;5069365;28;45195;-75
2022/09/25 09:29:58;;;;;;;2.90;2.45;;;19.30;53.10;;;;;;5073783;28;45321;-75
2022/09/25 09:32:36;;;;;;;4.47;2.20;;;19.30;53.10;;;;;;5075125;28;46381;-75
2022/09/25 09:35:12;;;;;;;2.33;1.90;;;19.30;53.20;;;;;;5069128;28;45368;-75
2022/09/25 09:37:49;;;;;;;1.92;1.83;;;19.30;53.20;;;;;;5053288;28;45416;-75
2022/09/25 09:40:25;;;;;;;2.70;2.28;;;19.30;53.30;;;;;;5069563;28;45175;-75
2022/09/25 09:42:58;;;;;;;2.20;2.00;;;19.30;53.20;;;;;;5068933;28;45702;-75
2022/09/25 09:45:28;;;;;;;2.58;2.10;;;19.30;53.20;;;;;;5066120;28;45470;-74
2022/09/25 09:47:58;;;;;;;2.47;2.25;;;19.40;53.20;;;;;;5069180;28;45365;-75
2022/09/25 09:50:31;;;;;;;2.10;1.95;;;19.40;53.20;;;;;;5069300;28;45348;-75
2022/09/25 09:53:01;;;;;;;2.95;2.05;;;19.40;53.30;;;;;;5068936;28;45799;-76
2022/09/25 09:55:37;;;;;;;2.13;1.90;;;19.40;53.20;;;;;;5068791;28;45301;-75
2022/09/25 09:58:06;;;;;;;2.15;2.05;;;19.40;53.20;;;;;;5056405;28;45251;-74
2022/09/25 10:00:33;;;;;;;2.50;2.10;;;19.50;53.20;;;;;;5069107;28;45553;-75
2022/09/25 10:03:01;;;;;;;3.50;2.28;;;19.50;53.20;;;;;;5066891;28;45470;-76
2022/09/25 10:05:29;;;;;;;2.20;2.00;;;19.50;53.70;;;;;;5063845;28;45317;-75
2022/09/25 10:07:56;;;;;;;3.53;2.05;;;19.50;53.10;;;;;;5068928;28;45230;-76
2022/09/25 10:10:28;;;;;;;2.40;2.20;;;19.60;53.20;;;;;;5068670;28;45488;-75
2022/09/25 10:13:00;;;;;;;2.67;2.17;;;19.60;53.10;;;;;;5068540;28;46443;-75
2022/09/25 10:15:28;;;;;;;2.28;2.08;;;19.60;53.00;;;;;;5067405;28;45305;-74
2022/09/25 10:17:55;;;;;;;2.08;1.88;;;19.60;52.80;;;;;;5068612;28;45274;-75
2022/09/25 10:20:23;;;;;;;3.55;2.30;;;19.70;52.80;;;;;;5068864;28;45327;-74
2022/09/25 10:22:52;;;;;;;2.10;1.95;;;19.70;52.70;;;;;;5067118;28;45382;-75
2022/09/25 10:25:33;;;;;;;3.28;2.35;;;19.70;52.60;;;;;;5067698;28;45249;-75
2022/09/25 10:28:02;;;;;;;2.40;2.20;;;19.80;52.60;;;;;;5068485;28;45464;-75
2022/09/25 10:30:29;;;;;;;2.28;2.08;;;19.80;52.60;;;;;;5064145;28;45183;-75
2022/09/25 10:32:57;;;;;;;2.28;2.08;;;19.80;52.70;;;;;;5068199;28;45266;-74
2022/09/25 10:35:26;;;;;;;1.95;1.83;;;19.80;53.00;;;;;;5066634;28;45435;-74
2022/09/25 10:37:53;;;;;;;2.25;2.05;;;19.90;52.90;;;;;;5061881;28;45314;-74
2022/09/25 10:40:25;;;;;;;2.63;2.30;;;19.90;52.90;;;;;;5068265;28;45320;-75
2022/09/25 10:43:04;;;;;;;3.08;1.90;;;19.90;52.70;;;;;;5065749;28;46697;-74
2022/09/25 10:45:31;;;;;;;2.22;2.00;;;19.90;52.60;;;;;;5067572;28;45240;-74
2022/09/25 10:50:43;;;;;;;4.20;2.40;;;20.00;52.90;;;;;;5051859;28;45270;-74
2022/09/25 10:53:27;;;;;;;2.35;1.90;;;20.00;52.90;;;;;;5066707;28;45390;-74
2022/09/25 10:55:54;;;;;;;2.10;1.90;;;20.00;53.60;;;;;;5048010;28;45286;-74
2022/09/25 10:58:25;;;;;;;2.28;2.00;;;20.00;53.10;;;;;;5059558;28;45274;-76
2022/09/25 11:00:54;;;;;;;2.45;2.20;;;20.10;53.10;;;;;;5068630;28;45322;-75
2022/09/25 11:03:22;;;;;;;3.58;2.20;;;20.10;53.10;;;;;;5066883;28;45457;-75
2022/09/25 11:05:52;;;;;;;2.35;2.00;;;20.10;53.20;;;;;;5067312;28;45347;-74
2022/09/25 11:08:20;;;;;;;3.10;2.00;;;20.10;53.20;;;;;;5076926;28;45428;-75
2022/09/25 11:10:49;;;;;;;5.82;2.20;;;20.10;53.40;;;;;;5083252;28;45495;-75
2022/09/25 11:13:20;;;;;;;5.18;2.45;;;20.20;53.50;;;;;;5071796;28;47285;-75
2022/09/25 11:15:51;;;;;;;3.05;2.10;;;20.20;53.40;;;;;;5071870;28;45410;-74
2022/09/25 11:18:35;;;;;;;2.10;1.90;;;20.20;53.40;;;;;;5076421;28;45331;-73
2022/09/25 11:21:02;;;;;;;3.50;1.95;;;20.20;53.40;;;;;;5047976;28;45350;-80
2022/09/25 11:23:32;;;;;;;2.15;1.95;;;20.20;53.60;;;;;;5047477;28;45402;-75
2022/09/25 11:26:05;;;;;;;2.78;2.10;;;20.30;53.50;;;;;;5047762;28;45308;-74
2022/09/25 11:28:33;;;;;;;3.55;2.10;;;20.30;53.50;;;;;;5047446;28;45316;-74
2022/09/25 11:31:03;;;;;;;2.65;2.10;;;20.30;53.60;;;;;;5047800;28;45352;-74
2022/09/25 11:33:36;;;;;;;3.25;2.30;;;20.30;53.60;;;;;;5047143;28;45529;-74
2022/09/25 11:36:05;;;;;;;1.92;1.80;;;20.30;53.50;;;;;;5056611;28;45415;-74
2022/09/25 11:41:29;;;;;;;2.05;1.73;;;20.40;53.60;;;;;;5041228;28;45493;-75
2022/09/25 11:44:07;;;;;;;4.05;2.17;;;20.40;53.60;;;;;;5066664;28;46399;-78
2022/09/25 11:46:41;;;;;;;2.75;2.08;;;20.40;53.60;;;;;;5067078;28;45342;-75
2022/09/25 11:49:14;;;;;;;8.25;2.50;;;20.50;53.80;;;;;;5067160;28;45266;-74
2022/09/25 11:51:55;;;;;;;3.58;2.25;;;20.50;53.70;;;;;;5067720;28;45411;-74
2022/09/25 11:54:26;;;;;;;7.25;2.10;;;20.50;53.60;;;;;;5052767;28;46918;-75
2022/09/25 11:56:56;;;;;;;6.63;1.90;;;20.50;53.70;;;;;;5061651;28;45326;-74
2022/09/25 11:59:30;;;;;;;6.35;2.05;;;20.60;53.50;;;;;;5066974;28;45253;-75
2022/09/25 12:02:01;;;;;;;7.63;2.35;;;20.60;53.60;;;;;;5067323;28;45375;-74
2022/09/25 12:04:39;;;;;;;3.78;2.17;;;20.60;53.50;;;;;;5066543;28;46736;-74
2022/09/25 12:07:15;;;;;;;4.47;2.17;;;20.70;53.50;;;;;;5066915;28;45238;-77
2022/09/25 12:09:56;;;;;;;4.28;1.85;;;20.70;53.50;;;;;;5067044;28;45300;-74
2022/09/25 12:12:26;;;;;;;1.90;1.80;;;20.70;53.50;;;;;;5067120;28;45435;-74
2022/09/25 12:14:57;;;;;;;2.50;1.90;;;20.70;53.40;;;;;;5066711;28;45400;-74
2022/09/25 12:17:30;;;;;;;3.63;2.20;;;20.70;53.50;;;;;;5063141;28;45447;-73
2022/09/25 12:19:59;;;;;;;2.20;2.00;;;20.70;53.50;;;;;;5065702;28;45262;-73
2022/09/25 12:22:29;;;;;;;3.53;2.10;;;20.80;53.60;;;;;;5067043;28;45349;-73
2022/09/25 12:25:00;;;;;;;2.78;2.03;;;20.80;53.50;;;;;;5066875;28;46718;-73
2022/09/25 12:27:39;;;;;;;3.28;2.10;;;20.80;53.40;;;;;;5057951;28;45234;-73
2022/09/25 12:30:14;;;;;;;2.80;1.83;;;20.80;53.40;;;;;;5066953;28;45251;-73
2022/09/25 12:33:06;;;;;;;4.22;2.00;;;20.80;53.30;;;;;;5067035;28;45124;-73
2022/09/25 12:35:38;;;;;;;4.55;2.00;;;20.80;53.50;;;;;;5066765;28;45415;-73
2022/09/25 12:38:09;;;;;;;2.33;1.95;;;20.80;53.40;;;;;;5067107;28;45233;-75
2022/09/25 12:40:38;;;;;;;3.60;1.80;;;20.80;53.20;;;;;;5060678;28;45427;-74
2022/09/25 12:43:07;;;;;;;3.40;1.88;;;20.80;53.20;;;;;;5065577;28;45353;-75
2022/09/25 12:45:37;;;;;;;2.65;2.10;;;20.80;53.20;;;;;;5065740;28;45504;-74
2022/09/25 12:48:11;;;;;;;2.25;2.10;;;20.80;53.20;;;;;;5063731;28;45337;-75
2022/09/25 12:50:42;;;;;;;2.50;2.30;;;20.80;53.20;;;;;;5065727;28;45478;-74
2022/09/25 12:53:15;;;;;;;3.78;2.10;;;20.80;53.20;;;;;;5054031;28;45171;-73
2022/09/25 12:55:43;;;;;;;2.15;1.88;;;20.80;53.20;;;;;;5065067;28;46446;-73
2022/09/25 12:58:17;;;;;;;4.43;2.00;;;20.80;53.10;;;;;;5065285;28;45248;-74
2022/09/25 13:00:44;;;;;;;2.20;1.77;;;20.80;53.10;;;;;;5065874;28;45333;-75
2022/09/25 13:03:14;;;;;;;3.22;1.80;;;20.80;53.10;;;;;;5065499;28;45452;-75
2022/09/25 13:05:44;;;;;;;3.15;1.85;;;20.80;53.20;;;;;;5066123;28;46406;-74
2022/09/25 13:08:14;;;;;;;2.75;2.13;;;20.80;53.10;;;;;;5064713;28;45517;-74
2022/09/25 13:10:43;;;;;;;1.95;1.80;;;20.80;53.10;;;;;;5066326;28;45478;-75
2022/09/25 13:13:11;;;;;;;2.55;2.05;;;20.80;53.10;;;;;;5065215;28;45245;-75
2022/09/25 13:15:38;;;;;;;3.00;2.10;;;20.80;53.10;;;;;;5066468;28;45200;-75
2022/09/25 13:18:06;;;;;;;2.10;1.90;;;20.80;53.10;;;;;;5065825;28;45489;-75